Time;durP1;ratioP1;P1;durP2;ratioP2;P2;SDS_P1;SDS_P2;PMS_P1;PMS_P2;Temp;Humidity;BMP_temperature;BMP_pressure;BME280_temperature;BME280_humidity;BME280_pressure;Samples;Min_cycle;Max_cycle;Signal;HPM_P1;HPM_P2
2021/03/15 00:00:59;;;;;;;23.10;3.23;;;5.80;83.80;;;;;;5037606;28;20048;-62
2021/03/15 00:03:25;;;;;;;20.93;3.40;;;5.80;84.50;;;;;;5044954;28;20394;-62
2021/03/15 00:05:51;;;;;;;21.27;3.40;;;5.70;84.20;;;;;;5040784;28;20500;-62
2021/03/15 00:08:16;;;;;;;17.30;3.00;;;5.80;84.40;;;;;;5040152;28;20037;-63
2021/03/15 00:10:42;;;;;;;21.47;3.50;;;5.70;84.60;;;;;;5045216;28;20029;-62
2021/03/15 00:13:08;;;;;;;23.63;3.73;;;5.70;84.50;;;;;;5043422;28;20385;-62
2021/03/15 00:15:35;;;;;;;14.27;2.83;;;5.80;84.80;;;;;;5043374;28;20037;-62
2021/03/15 00:18:01;;;;;;;12.13;2.13;;;5.70;85.00;;;;;;5022469;28;20099;-63
2021/03/15 00:20:27;;;;;;;12.87;3.23;;;5.70;84.20;;;;;;5023717;28;20042;-62
2021/03/15 00:22:53;;;;;;;15.70;2.60;;;5.60;84.20;;;;;;5029261;28;20048;-62
2021/03/15 00:25:19;;;;;;;17.53;2.80;;;5.50;84.30;;;;;;5016873;28;20033;-63
2021/03/15 00:27:45;;;;;;;16.23;2.87;;;5.40;84.30;;;;;;5028961;28;20132;-62
2021/03/15 00:30:14;;;;;;;14.10;2.50;;;5.30;84.30;;;;;;5019920;28;20037;-62
2021/03/15 00:32:43;;;;;;;11.57;2.30;;;5.20;84.70;;;;;;5039376;28;20033;-63
2021/03/15 00:35:11;;;;;;;15.27;2.30;;;5.00;84.90;;;;;;5026661;28;20516;-62
2021/03/15 00:37:38;;;;;;;12.20;2.10;;;5.00;85.20;;;;;;5045998;28;20037;-62
2021/03/15 00:40:06;;;;;;;11.67;2.20;;;4.90;85.60;;;;;;5044190;28;20702;-62
2021/03/15 00:42:32;;;;;;;12.90;2.90;;;4.90;85.90;;;;;;5044704;28;20124;-62
2021/03/15 00:44:58;;;;;;;12.17;2.13;;;4.80;85.90;;;;;;5007206;28;20038;-62
2021/03/15 00:47:23;;;;;;;14.80;2.57;;;4.80;85.90;;;;;;5048961;28;20052;-62
2021/03/15 00:49:49;;;;;;;13.50;2.07;;;4.80;86.10;;;;;;5029527;28;20028;-63
2021/03/15 00:52:15;;;;;;;17.13;2.77;;;4.80;86.40;;;;;;5063618;28;20507;-62
2021/03/15 00:54:40;;;;;;;16.57;3.20;;;4.80;86.50;;;;;;5068950;28;20041;-62
2021/03/15 00:57:18;;;;;;;18.83;2.60;;;4.80;86.70;;;;;;5026578;28;20864;-62
2021/03/15 00:59:44;;;;;;;20.60;3.57;;;4.80;87.00;;;;;;5022850;28;20030;-62
2021/03/15 01:02:11;;;;;;;18.33;3.00;;;4.80;87.20;;;;;;5046986;28;20460;-63
2021/03/15 01:04:37;;;;;;;18.47;3.03;;;4.90;87.40;;;;;;5024528;28;20025;-63
2021/03/15 01:07:13;;;;;;;15.83;2.97;;;4.90;87.30;;;;;;5029007;28;20904;-63
2021/03/15 01:09:40;;;;;;;17.13;2.77;;;5.00;87.60;;;;;;5024077;28;20042;-62
2021/03/15 01:12:17;;;;;;;14.30;2.63;;;5.00;87.70;;;;;;5018575;28;20041;-62
2021/03/15 01:14:43;;;;;;;13.57;2.40;;;5.10;87.60;;;;;;5020332;28;20041;-62
2021/03/15 01:17:13;;;;;;;17.03;2.80;;;5.10;87.60;;;;;;5020433;28;20120;-62
2021/03/15 01:19:42;;;;;;;13.43;2.28;;;5.10;87.60;;;;;;5039479;28;20163;-62
2021/03/15 01:22:08;;;;;;;13.57;2.60;;;5.10;87.40;;;;;;5045415;28;20113;-63
2021/03/15 01:24:34;;;;;;;15.47;2.77;;;5.10;87.30;;;;;;5031747;28;20401;-63
2021/03/15 01:27:00;;;;;;;13.27;2.40;;;5.00;87.30;;;;;;5043036;28;20033;-62
2021/03/15 01:29:26;;;;;;;15.17;2.87;;;5.00;87.40;;;;;;5017289;28;20557;-62
2021/03/15 01:31:52;;;;;;;15.57;2.83;;;5.00;87.50;;;;;;5043723;28;20095;-63
2021/03/15 01:34:18;;;;;;;18.57;2.57;;;5.00;87.60;;;;;;5034371;28;20041;-62
2021/03/15 01:36:43;;;;;;;10.93;2.73;;;4.90;87.30;;;;;;5028745;28;20037;-64
2021/03/15 01:39:09;;;;;;;16.80;3.00;;;4.80;87.30;;;;;;5032525;28;20052;-65
2021/03/15 01:41:34;;;;;;;14.00;2.63;;;4.80;87.70;;;;;;5051384;28;20063;-62
2021/03/15 01:44:00;;;;;;;13.83;2.87;;;4.80;88.10;;;;;;5034055;28;20103;-63
2021/03/15 01:46:26;;;;;;;15.13;3.00;;;4.80;88.40;;;;;;5029555;28;20057;-62
2021/03/15 01:48:51;;;;;;;15.90;2.63;;;4.90;88.70;;;;;;5048285;28;20044;-62
2021/03/15 01:51:17;;;;;;;16.47;2.87;;;4.90;88.70;;;;;;5068475;28;20040;-63
2021/03/15 01:53:44;;;;;;;10.87;2.70;;;4.90;88.70;;;;;;5025261;28;20029;-62
2021/03/15 01:56:12;;;;;;;12.57;2.60;;;5.00;88.60;;;;;;5059371;28;20044;-63
2021/03/15 01:58:38;;;;;;;13.83;3.10;;;5.00;88.60;;;;;;5051531;28;20040;-62
2021/03/15 02:01:04;;;;;;;18.80;3.30;;;5.00;88.60;;;;;;5041591;28;20055;-62
2021/03/15 02:03:31;;;;;;;19.03;3.37;;;5.00;88.50;;;;;;5012006;28;20486;-62
2021/03/15 02:05:57;;;;;;;15.73;3.23;;;5.00;88.60;;;;;;5036255;28;20091;-62
2021/03/15 02:08:22;;;;;;;16.13;3.00;;;5.00;88.80;;;;;;5046172;28;20032;-63
2021/03/15 02:10:48;;;;;;;15.83;3.27;;;5.10;88.90;;;;;;5024339;28;20039;-62
2021/03/15 02:13:44;;;;;;;13.63;3.10;;;5.10;88.90;;;;;;5024098;28;20037;-62
2021/03/15 02:16:25;;;;;;;16.70;3.47;;;5.10;88.80;;;;;;5028089;28;20043;-62
2021/03/15 02:19:20;;;;;;;17.88;4.30;;;5.10;88.90;;;;;;5016703;28;20173;-63
2021/03/15 02:22:25;;;;;;;15.30;3.57;;;5.20;89.10;;;;;;5000147;28;20088;-63
2021/03/15 02:25:21;;;;;;;15.37;3.73;;;5.20;89.10;;;;;;5016591;28;20041;-62
2021/03/15 02:28:22;;;;;;;18.50;4.40;;;5.20;89.00;;;;;;5030892;28;20057;-62
2021/03/15 02:31:31;;;;;;;23.43;4.70;;;5.20;88.80;;;;;;5019275;28;20072;-63
2021/03/15 02:34:05;;;;;;;14.37;4.10;;;5.20;88.80;;;;;;5019856;28;20526;-62
2021/03/15 02:36:37;;;;;;;15.63;4.47;;;5.20;89.30;;;;;;5011295;28;20453;-62
2021/03/15 02:39:07;;;;;;;17.80;4.73;;;5.20;89.30;;;;;;5030840;28;20507;-62
2021/03/15 02:41:36;;;;;;;23.97;5.07;;;5.20;89.80;;;;;;5015056;28;20041;-62
2021/03/15 02:44:05;;;;;;;16.00;5.43;;;5.20;89.00;;;;;;5060272;23;20044;-65
2021/03/15 02:46:33;;;;;;;22.13;5.27;;;5.20;89.00;;;;;;5062960;28;20045;-66
2021/03/15 02:49:03;;;;;;;18.27;4.70;;;5.20;89.00;;;;;;5059915;28;20072;-65
2021/03/15 02:51:32;;;;;;;16.63;4.60;;;5.10;88.90;;;;;;5053689;28;20044;-68
2021/03/15 02:54:01;;;;;;;19.60;4.60;;;5.10;88.90;;;;;;5046064;28;20119;-66
2021/03/15 02:56:29;;;;;;;17.43;5.30;;;5.00;89.00;;;;;;5045413;28;20053;-65
2021/03/15 02:58:57;;;;;;;21.43;5.07;;;5.00;89.10;;;;;;5039727;28;20044;-71
2021/03/15 03:01:24;;;;;;;23.00;5.63;;;5.00;89.20;;;;;;5050357;28;20129;-69
2021/03/15 03:03:54;;;;;;;21.77;5.07;;;5.00;89.40;;;;;;5036053;28;20444;-69
2021/03/15 03:06:26;;;;;;;21.67;5.13;;;5.00;89.40;;;;;;5042611;28;20033;-69
2021/03/15 03:08:54;;;;;;;21.03;4.80;;;5.00;89.50;;;;;;5015081;28;20030;-70
2021/03/15 03:11:21;;;;;;;19.10;4.70;;;5.00;89.90;;;;;;5033009;28;20040;-71
2021/03/15 03:13:49;;;;;;;16.33;4.70;;;5.00;90.00;;;;;;5008205;28;20432;-71
2021/03/15 03:16:16;;;;;;;19.33;4.60;;;5.10;90.00;;;;;;5028107;28;20494;-71
2021/03/15 03:18:45;;;;;;;17.30;4.23;;;5.10;89.90;;;;;;5014492;28;20409;-69
2021/03/15 03:21:10;;;;;;;13.67;3.97;;;5.10;89.80;;;;;;5020798;28;20045;-69
2021/03/15 03:23:39;;;;;;;21.07;4.30;;;5.20;89.80;;;;;;5017777;28;20033;-70
2021/03/15 03:26:07;;;;;;;17.23;4.23;;;5.10;89.60;;;;;;5034187;28;20145;-70
2021/03/15 03:28:34;;;;;;;16.53;3.67;;;5.10;89.60;;;;;;5020006;28;20041;-70
2021/03/15 03:31:02;;;;;;;19.47;4.30;;;5.10;89.70;;;;;;5021391;28;20037;-71
2021/03/15 03:33:28;;;;;;;14.70;4.07;;;5.10;89.80;;;;;;5017453;28;20072;-69
2021/03/15 03:35:54;;;;;;;20.47;4.63;;;5.10;89.90;;;;;;5046642;28;20090;-69
2021/03/15 03:38:20;;;;;;;23.97;4.90;;;5.10;89.80;;;;;;5043496;28;20033;-68
2021/03/15 03:40:47;;;;;;;23.60;6.20;;;5.10;90.00;;;;;;5043453;28;20477;-70
2021/03/15 03:43:12;;;;;;;23.07;5.77;;;5.10;90.00;;;;;;5041230;28;20044;-69
2021/03/15 03:45:39;;;;;;;18.20;5.60;;;5.10;89.80;;;;;;5041948;28;20397;-70
2021/03/15 03:48:05;;;;;;;18.40;5.30;;;5.10;89.90;;;;;;5023281;28;20034;-69
2021/03/15 03:50:33;;;;;;;19.90;5.67;;;5.10;90.00;;;;;;5025125;28;20107;-70
2021/03/15 03:53:11;;;;;;;15.60;5.43;;;5.10;90.00;;;;;;5016671;28;20069;-69
2021/03/15 03:56:10;;;;;;;21.37;5.77;;;5.10;90.00;;;;;;5044958;28;20116;-70
2021/03/15 03:58:43;;;;;;;17.87;5.03;;;5.00;89.90;;;;;;5023476;28;20039;-71
2021/03/15 04:01:11;;;;;;;17.63;5.47;;;5.00;89.90;;;;;;5066136;28;20036;-69
2021/03/15 04:03:38;;;;;;;23.87;6.23;;;5.00;90.00;;;;;;5040435;28;20036;-69
2021/03/15 04:06:09;;;;;;;18.50;6.13;;;5.00;90.10;;;;;;5059231;28;20123;-69
2021/03/15 04:08:48;;;;;;;22.40;7.37;;;5.00;90.10;;;;;;5029850;28;20073;-69
2021/03/15 04:11:14;;;;;;;17.90;6.13;;;5.00;90.20;;;;;;5030954;28;20043;-68
2021/03/15 04:13:43;;;;;;;18.43;6.60;;;5.00;90.10;;;;;;5024822;28;20496;-71
2021/03/15 04:16:12;;;;;;;18.70;6.63;;;5.00;90.20;;;;;;5053137;28;20131;-69
2021/03/15 04:18:42;;;;;;;21.10;7.20;;;5.00;90.20;;;;;;5035783;28;20038;-69
2021/03/15 04:21:09;;;;;;;18.02;6.65;;;5.00;90.20;;;;;;5044735;28;20044;-70
2021/03/15 04:23:39;;;;;;;18.47;7.43;;;5.00;90.30;;;;;;5039435;28;20559;-69
2021/03/15 04:26:06;;;;;;;18.90;6.30;;;5.00;90.00;;;;;;5049385;28;20041;-69
2021/03/15 04:28:34;;;;;;;19.70;6.60;;;5.00;90.10;;;;;;5037089;28;20404;-69
2021/03/15 04:31:01;;;;;;;16.87;6.23;;;5.00;90.10;;;;;;5034577;28;20401;-70
2021/03/15 04:33:27;;;;;;;20.70;7.43;;;5.00;90.10;;;;;;5033239;28;20041;-69
2021/03/15 04:35:54;;;;;;;19.70;6.27;;;5.00;90.10;;;;;;5048789;28;20463;-70
2021/03/15 04:38:21;;;;;;;15.20;6.37;;;5.00;90.20;;;;;;5024437;28;20034;-70
2021/03/15 04:40:49;;;;;;;15.97;6.07;;;5.00;90.30;;;;;;5012250;28;20041;-71
2021/03/15 04:43:16;;;;;;;16.73;6.27;;;5.10;90.30;;;;;;5023310;28;20053;-69
2021/03/15 04:45:43;;;;;;;16.30;6.30;;;5.10;90.20;;;;;;5038975;28;20037;-70
2021/03/15 04:48:20;;;;;;;17.03;6.43;;;5.10;90.20;;;;;;5015159;28;20034;-70
2021/03/15 04:50:48;;;;;;;18.10;6.57;;;5.10;90.10;;;;;;5016301;28;20037;-70
2021/03/15 04:53:15;;;;;;;14.50;6.33;;;5.10;90.20;;;;;;5042407;28;20037;-69
2021/03/15 04:55:41;;;;;;;17.90;6.87;;;5.10;90.10;;;;;;5054767;28;20055;-70
2021/03/15 04:58:09;;;;;;;17.73;6.80;;;5.10;90.10;;;;;;5064544;28;20116;-70
2021/03/15 05:00:37;;;;;;;14.27;6.23;;;5.10;90.00;;;;;;5063530;28;20560;-69
2021/03/15 05:03:06;;;;;;;13.07;6.07;;;5.00;90.00;;;;;;5037667;28;20032;-70
2021/03/15 05:05:33;;;;;;;15.07;6.77;;;5.00;90.10;;;;;;5007316;28;20476;-69
2021/03/15 05:08:02;;;;;;;18.83;7.00;;;5.00;90.10;;;;;;5029181;28;20040;-70
2021/03/15 05:10:28;;;;;;;18.17;7.13;;;5.00;90.10;;;;;;5028434;28;20044;-68
2021/03/15 05:12:56;;;;;;;14.30;5.60;;;5.00;90.10;;;;;;5051359;28;20052;-65
2021/03/15 05:15:22;;;;;;;12.50;5.40;;;5.00;90.20;;;;;;5008382;28;20041;-66
2021/03/15 05:17:49;;;;;;;14.83;6.17;;;5.00;90.10;;;;;;5053332;28;20040;-65
2021/03/15 05:20:18;;;;;;;11.90;5.23;;;4.90;90.10;;;;;;5056784;28;20095;-66
2021/03/15 05:22:44;;;;;;;12.53;5.13;;;5.00;90.20;;;;;;5057652;28;20037;-66
2021/03/15 05:25:14;;;;;;;12.53;5.53;;;4.90;90.20;;;;;;5059567;28;20043;-68
2021/03/15 05:27:43;;;;;;;13.68;5.60;;;4.90;90.10;;;;;;5014636;28;20486;-65
2021/03/15 05:30:12;;;;;;;17.50;5.93;;;4.90;90.10;;;;;;5013810;28;20406;-67
2021/03/15 05:32:41;;;;;;;15.50;6.23;;;4.90;90.20;;;;;;5031793;28;20037;-66
2021/03/15 05:35:09;;;;;;;13.77;5.83;;;4.90;90.20;;;;;;5032314;28;20055;-68
2021/03/15 05:37:36;;;;;;;14.73;6.37;;;4.90;90.10;;;;;;5031642;28;20033;-72
2021/03/15 05:40:02;;;;;;;13.87;5.87;;;4.90;90.10;;;;;;5031608;28;20037;-68
2021/03/15 05:42:50;;;;;;;12.87;5.87;;;4.90;90.20;;;;;;5030368;28;20040;-69
2021/03/15 05:45:21;;;;;;;13.83;6.10;;;5.00;90.20;;;;;;5031723;28;20426;-71
2021/03/15 05:48:05;;;;;;;11.67;5.43;;;4.90;90.20;;;;;;5030969;28;20119;-70
2021/03/15 05:51:06;;;;;;;16.47;5.57;;;5.00;90.20;;;;;;5031036;28;20042;-68
2021/03/15 05:53:48;;;;;;;9.47;4.53;;;5.00;90.20;;;;;;5035396;28;20048;-69
2021/03/15 05:56:24;;;;;;;13.27;5.70;;;5.00;90.20;;;;;;5031274;28;20095;-68
2021/03/15 05:58:55;;;;;;;14.57;5.50;;;5.00;90.20;;;;;;5047427;28;20444;-69
2021/03/15 06:01:29;;;;;;;16.40;5.73;;;5.00;90.10;;;;;;5041308;28;20044;-67
2021/03/15 06:04:01;;;;;;;14.50;5.90;;;5.00;90.10;;;;;;5062400;28;20105;-68
2021/03/15 06:06:35;;;;;;;12.90;5.83;;;5.10;90.00;;;;;;5034976;28;20045;-65
2021/03/15 06:09:03;;;;;;;11.03;5.40;;;5.00;90.00;;;;;;5050712;28;20404;-65
2021/03/15 06:11:43;;;;;;;12.60;5.90;;;5.10;90.20;;;;;;5034132;28;20034;-70
2021/03/15 06:14:10;;;;;;;13.07;5.15;;;5.10;90.20;;;;;;5056092;28;20510;-65
2021/03/15 06:16:36;;;;;;;10.40;5.17;;;5.20;90.20;;;;;;5061144;28;20036;-66
2021/03/15 06:19:03;;;;;;;13.50;5.43;;;5.20;90.20;;;;;;5070622;28;20042;-65
2021/03/15 06:21:30;;;;;;;14.97;5.40;;;5.30;90.20;;;;;;5070272;28;20504;-66
2021/03/15 06:23:59;;;;;;;14.37;5.47;;;5.40;90.10;;;;;;5070909;28;20059;-65
2021/03/15 06:26:29;;;;;;;19.67;5.07;;;5.40;89.90;;;;;;5070745;28;20036;-65
2021/03/15 06:28:58;;;;;;;11.10;4.77;;;5.40;89.70;;;;;;5071163;28;20545;-66
2021/03/15 06:31:25;;;;;;;12.77;4.67;;;5.40;89.80;;;;;;5070341;28;20281;-66
2021/03/15 06:33:51;;;;;;;18.17;4.97;;;5.30;89.90;;;;;;5053018;28;20063;-65
2021/03/15 06:36:17;;;;;;;15.40;5.07;;;5.40;89.80;;;;;;5070892;28;20119;-65
2021/03/15 06:38:44;;;;;;;13.47;4.93;;;5.30;89.80;;;;;;5070470;28;20033;-65
2021/03/15 06:41:11;;;;;;;13.63;4.80;;;5.30;89.60;;;;;;5070922;28;20032;-66
2021/03/15 06:43:36;;;;;;;15.03;4.67;;;5.30;90.00;;;;;;5070410;28;20042;-65
2021/03/15 06:46:02;;;;;;;13.87;5.30;;;5.40;90.00;;;;;;5070952;28;20041;-66
2021/03/15 06:48:29;;;;;;;15.87;4.90;;;5.40;89.80;;;;;;5070968;28;20048;-66
2021/03/15 06:50:56;;;;;;;13.10;4.80;;;5.40;90.00;;;;;;5070046;28;20059;-65
2021/03/15 06:53:22;;;;;;;14.20;5.10;;;5.50;89.70;;;;;;5070676;28;20071;-66
2021/03/15 06:55:53;;;;;;;14.60;5.13;;;5.40;89.60;;;;;;5070747;28;20415;-70
2021/03/15 06:58:18;;;;;;;14.68;5.15;;;5.40;89.80;;;;;;5070646;28;20169;-73
2021/03/15 07:00:45;;;;;;;18.70;5.17;;;5.50;89.70;;;;;;5052621;28;20127;-72
2021/03/15 07:03:20;;;;;;;13.70;4.97;;;5.50;89.90;;;;;;5070191;28;20365;-73
2021/03/15 07:05:55;;;;;;;14.53;5.43;;;5.50;90.00;;;;;;5052879;28;20175;-71
2021/03/15 07:08:21;;;;;;;20.53;5.10;;;5.50;89.90;;;;;;5070324;28;20397;-72
2021/03/15 07:10:47;;;;;;;14.80;4.63;;;5.50;89.70;;;;;;5052676;28;20065;-72
2021/03/15 07:13:14;;;;;;;13.20;4.40;;;5.50;89.60;;;;;;5070121;28;20047;-70
2021/03/15 07:15:41;;;;;;;17.07;5.07;;;5.50;89.80;;;;;;5070683;28;20052;-72
2021/03/15 07:18:14;;;;;;;18.73;5.00;;;5.40;90.00;;;;;;5070671;28;20040;-72
2021/03/15 07:20:45;;;;;;;17.50;5.70;;;5.40;90.10;;;;;;5069817;28;20028;-72
2021/03/15 07:23:11;;;;;;;;;;;5.50;90.40;;;;;;5053789;28;20492;-72
2021/03/15 07:25:37;;;;;;;14.53;4.40;;;5.50;90.50;;;;;;5052253;28;19919;-71
2021/03/15 07:28:03;;;;;;;12.80;4.73;;;5.70;90.50;;;;;;5052966;28;20024;-70
2021/03/15 07:30:41;;;;;;;14.77;4.43;;;5.70;90.40;;;;;;5055584;28;20046;-71
2021/03/15 07:33:22;;;;;;;15.10;4.87;;;5.80;90.40;;;;;;5074198;28;20508;-73
2021/03/15 07:35:48;;;;;;;;;;;5.80;90.30;;;;;;5074092;28;20516;-73
2021/03/15 07:38:14;;;;;;;12.37;4.20;;;5.80;90.20;;;;;;5073990;28;19912;-71
2021/03/15 07:40:45;;;;;;;13.70;4.73;;;5.80;90.10;;;;;;5073848;28;20516;-72
2021/03/15 07:43:28;;;;;;;16.03;4.57;;;5.70;90.00;;;;;;5073511;28;20043;-71
2021/03/15 07:45:53;;;;;;;15.47;4.67;;;5.70;90.10;;;;;;5073671;28;20442;-73
2021/03/15 07:48:21;;;;;;;14.23;4.67;;;5.60;90.10;;;;;;5044691;28;20033;-71
2021/03/15 07:50:57;;;;;;;11.40;3.80;;;5.60;90.30;;;;;;5061819;28;20397;-72
2021/03/15 07:54:03;;;;;;;10.23;3.60;;;5.60;90.40;;;;;;5062053;28;20396;-72
2021/03/15 07:56:28;;;;;;;8.50;3.40;;;5.60;90.50;;;;;;5016262;28;20052;-72
2021/03/15 07:58:55;;;;;;;10.47;3.23;;;5.60;90.40;;;;;;5053735;28;20040;-72
2021/03/15 08:01:20;;;;;;;10.77;3.87;;;5.60;90.70;;;;;;5034229;28;20041;-74
2021/03/15 08:03:47;;;;;;;11.27;3.80;;;5.70;90.70;;;;;;5053511;28;20116;-70
2021/03/15 08:06:13;;;;;;;12.23;3.90;;;5.70;90.60;;;;;;5053506;28;20040;-73
2021/03/15 08:08:40;;;;;;;12.80;4.20;;;5.80;90.70;;;;;;5052928;28;20043;-73
2021/03/15 08:11:07;;;;;;;10.47;3.57;;;5.80;91.00;;;;;;5049341;28;20424;-72
2021/03/15 08:13:38;;;;;;;10.27;3.03;;;5.90;90.80;;;;;;5027801;28;20041;-71
2021/03/15 08:16:04;;;;;;;;;;;6.00;90.70;;;;;;5035729;28;20037;-72
2021/03/15 08:18:32;;;;;;;8.73;2.67;;;6.00;90.80;;;;;;5053204;28;19919;-73
2021/03/15 08:21:11;;;;;;;10.67;2.97;;;6.10;91.00;;;;;;5052561;28;20051;-71
2021/03/15 08:23:43;;;;;;;12.60;2.77;;;6.20;91.10;;;;;;5053224;28;20055;-73
2021/03/15 08:26:12;;;;;;;11.10;3.10;;;6.40;91.20;;;;;;5052921;28;20059;-73
2021/03/15 08:28:39;;;;;;;10.97;2.50;;;6.60;91.10;;;;;;5052919;28;20036;-72
2021/03/15 08:31:08;;;;;;;7.77;2.17;;;7.20;92.30;;;;;;5052108;28;20436;-73
2021/03/15 08:33:35;;;;;;;9.97;2.67;;;7.50;91.00;;;;;;5052865;28;20043;-72
2021/03/15 08:36:01;;;;;;;10.83;2.47;;;7.70;90.50;;;;;;5034746;28;20071;-72
2021/03/15 08:38:31;;;;;;;13.17;2.87;;;7.80;90.30;;;;;;5018815;28;20046;-73
2021/03/15 08:41:23;;;;;;;12.75;2.97;;;7.80;90.10;;;;;;5052224;28;20064;-72
2021/03/15 08:43:50;;;;;;;12.77;3.00;;;7.70;89.50;;;;;;5052920;28;20056;-71
2021/03/15 08:46:24;;;;;;;12.27;3.00;;;7.70;89.70;;;;;;5034970;28;20043;-71
2021/03/15 08:48:52;;;;;;;13.13;2.90;;;7.70;89.50;;;;;;5052258;28;20048;-72
2021/03/15 08:51:33;;;;;;;17.63;3.83;;;7.60;88.60;;;;;;5052518;28;20041;-72
2021/03/15 08:54:07;;;;;;;13.73;3.17;;;7.50;88.60;;;;;;5046834;28;20056;-72
2021/03/15 08:56:39;;;;;;;13.43;2.90;;;7.40;89.30;;;;;;5028164;28;20091;-72
2021/03/15 08:59:09;;;;;;;14.40;2.70;;;7.30;89.10;;;;;;5034048;28;20586;-73
2021/03/15 09:01:57;;;;;;;12.32;2.67;;;7.30;88.90;;;;;;5034165;28;20037;-73
2021/03/15 09:04:33;;;;;;;13.73;2.37;;;7.20;89.10;;;;;;5051875;28;20073;-72
2021/03/15 09:07:20;;;;;;;12.67;2.47;;;7.20;89.60;;;;;;5051700;28;20037;-67
2021/03/15 09:09:46;;;;;;;14.23;2.07;;;7.30;90.00;;;;;;5051314;28;20548;-73
2021/03/15 09:12:17;;;;;;;13.90;2.10;;;7.30;89.60;;;;;;5051221;28;20029;-71
2021/03/15 09:14:54;;;;;;;13.20;2.27;;;7.40;89.40;;;;;;5051591;28;20033;-71
2021/03/15 09:17:20;;;;;;;17.07;2.57;;;7.40;89.00;;;;;;5051369;28;20485;-71
2021/03/15 09:19:47;;;;;;;14.23;2.30;;;7.50;90.00;;;;;;5051525;28;20029;-71
2021/03/15 09:22:23;;;;;;;14.53;2.80;;;7.70;89.20;;;;;;5051443;28;20029;-71
2021/03/15 09:25:00;;;;;;;17.10;2.27;;;7.90;89.70;;;;;;5051536;28;20374;-72
2021/03/15 09:27:50;;;;;;;13.73;2.17;;;8.00;88.80;;;;;;5051322;28;20032;-70
2021/03/15 09:30:29;;;;;;;15.07;2.78;;;8.00;88.00;;;;;;5036949;28;20040;-72
2021/03/15 09:32:57;;;;;;;21.03;2.37;;;8.00;88.30;;;;;;5050766;28;20036;-71
2021/03/15 09:35:36;;;;;;;16.17;2.87;;;8.20;88.90;;;;;;5051472;28;20056;-72
2021/03/15 09:38:13;;;;;;;13.23;2.00;;;8.50;89.30;;;;;;5051286;28;20033;-71
2021/03/15 09:40:49;;;;;;;19.63;2.97;;;8.70;87.30;;;;;;5033054;28;20033;-70
2021/03/15 09:43:26;;;;;;;17.20;2.83;;;8.70;87.30;;;;;;5034137;28;20129;-72
2021/03/15 09:45:57;;;;;;;18.33;2.43;;;8.60;86.10;;;;;;5050967;28;20090;-69
2021/03/15 09:48:24;;;;;;;15.77;2.67;;;8.50;85.00;;;;;;5051330;28;20040;-70
2021/03/15 09:50:57;;;;;;;14.87;2.43;;;8.30;85.80;;;;;;5033097;28;20037;-72
2021/03/15 09:53:36;;;;;;;16.20;2.30;;;8.40;87.40;;;;;;5032190;28;20041;-72
2021/03/15 09:56:11;;;;;;;12.85;2.67;;;8.50;87.20;;;;;;5033143;28;20081;-70
2021/03/15 09:58:49;;;;;;;14.40;2.20;;;8.50;85.80;;;;;;5032955;28;20033;-74
2021/03/15 10:01:21;;;;;;;15.53;3.07;;;8.40;85.90;;;;;;5032907;28;20129;-71
2021/03/15 10:03:59;;;;;;;16.95;2.80;;;8.30;85.30;;;;;;5049927;28;20037;-71
2021/03/15 10:06:45;;;;;;;14.83;2.33;;;8.10;85.20;;;;;;5050356;28;20551;-71
2021/03/15 10:09:31;;;;;;;22.77;2.77;;;8.00;86.20;;;;;;5051124;28;20043;-71
2021/03/15 10:12:21;;;;;;;22.97;3.13;;;8.30;88.40;;;;;;5050556;28;20111;-72
2021/03/15 10:15:21;;;;;;;18.83;2.80;;;8.80;87.90;;;;;;5035661;28;20099;-70
2021/03/15 10:18:00;;;;;;;18.27;2.90;;;9.30;86.60;;;;;;5033047;28;20040;-72
2021/03/15 10:20:38;;;;;;;19.90;3.10;;;9.20;83.80;;;;;;5032426;28;20409;-73
2021/03/15 10:23:09;;;;;;;16.60;2.77;;;9.00;83.40;;;;;;5033166;28;20397;-72
2021/03/15 10:25:36;;;;;;;16.55;2.63;;;8.80;83.70;;;;;;5032377;28;20041;-72
2021/03/15 10:28:02;;;;;;;18.20;2.80;;;8.80;85.00;;;;;;5032759;28;20043;-73
2021/03/15 10:30:35;;;;;;;18.35;2.95;;;8.90;85.70;;;;;;5032072;28;20040;-73
2021/03/15 10:33:02;;;;;;;17.10;2.80;;;9.30;86.10;;;;;;5032536;28;20063;-71
2021/03/15 10:35:35;;;;;;;16.00;2.40;;;9.90;85.90;;;;;;5032497;28;20043;-71
2021/03/15 10:38:11;;;;;;;20.42;2.75;;;10.30;84.60;;;;;;5032361;28;20055;-72
2021/03/15 10:40:45;;;;;;;18.23;2.60;;;10.30;80.80;;;;;;5017174;28;20087;-72
2021/03/15 10:43:25;;;;;;;21.60;3.92;;;10.10;81.50;;;;;;5049909;28;20059;-73
2021/03/15 10:46:12;;;;;;;16.75;3.15;;;10.10;82.50;;;;;;5032549;28;20558;-72
2021/03/15 10:48:39;;;;;;;;;;;10.30;82.40;;;;;;5033074;28;20033;-72
2021/03/15 10:51:06;;;;;;;21.95;3.33;;;10.30;81.00;;;;;;5032068;28;19912;-71
2021/03/15 10:54:01;;;;;;;17.45;3.20;;;10.10;78.90;;;;;;5032467;28;20432;-72
2021/03/15 10:56:36;;;;;;;14.55;2.53;;;9.60;78.90;;;;;;5033915;28;20505;-74
2021/03/15 10:59:06;;;;;;;11.68;2.30;;;9.20;79.70;;;;;;5032181;28;20131;-71
2021/03/15 11:01:40;;;;;;;13.73;2.15;;;8.90;79.60;;;;;;5032299;28;20448;-72
2021/03/15 11:04:32;;;;;;;13.80;2.70;;;8.80;81.30;;;;;;5034324;28;20025;-70
2021/03/15 11:07:20;;;;;;;18.33;2.77;;;8.80;81.80;;;;;;5033267;28;20028;-71
2021/03/15 11:10:02;;;;;;;16.33;2.93;;;8.80;81.50;;;;;;5035962;28;20044;-73
2021/03/15 11:12:43;;;;;;;15.40;2.60;;;8.70;81.50;;;;;;5043653;28;20413;-71
2021/03/15 11:15:22;;;;;;;17.23;2.70;;;8.70;82.20;;;;;;5044148;28;20116;-72
2021/03/15 11:18:10;;;;;;;11.80;2.25;;;8.90;83.10;;;;;;5028439;28;20052;-72
2021/03/15 11:20:44;;;;;;;15.20;2.37;;;9.00;82.90;;;;;;5032202;28;20506;-70
2021/03/15 11:23:35;;;;;;;16.60;2.80;;;8.90;80.90;;;;;;5032701;28;20041;-72
2021/03/15 11:26:12;;;;;;;16.40;2.72;;;8.90;82.10;;;;;;5030135;28;20040;-71
2021/03/15 11:28:44;;;;;;;17.60;2.88;;;9.70;85.20;;;;;;5020486;28;20044;-71
2021/03/15 11:31:17;;;;;;;13.73;2.70;;;10.90;84.80;;;;;;5043739;28;20401;-73
2021/03/15 11:33:55;;;;;;;17.02;2.72;;;11.60;82.00;;;;;;5052457;28;20044;-72
2021/03/15 11:36:36;;;;;;;15.55;2.83;;;11.50;78.30;;;;;;5011125;28;20061;-73
2021/03/15 11:39:08;;;;;;;17.15;2.55;;;11.00;76.40;;;;;;5065458;28;20026;-71
2021/03/15 11:42:31;;;;;;;17.80;2.58;;;10.40;75.20;;;;;;5023559;28;20026;-71
2021/03/15 11:44:59;;;;;;;14.70;2.65;;;9.60;77.10;;;;;;5047887;28;20506;-71
2021/03/15 11:47:25;;;;;;;14.98;2.38;;;9.40;80.00;;;;;;5032216;28;20030;-69
2021/03/15 11:50:10;;;;;;;12.45;2.30;;;9.70;81.90;;;;;;5031698;28;20072;-71
2021/03/15 11:52:47;;;;;;;13.23;2.10;;;10.60;83.40;;;;;;5046068;28;20037;-70
2021/03/15 11:55:19;;;;;;;13.93;2.40;;;11.60;82.70;;;;;;5030357;28;20041;-71
2021/03/15 11:57:45;;;;;;;13.88;2.25;;;12.30;80.40;;;;;;5032508;28;20136;-73
2021/03/15 12:00:13;;;;;;;14.80;2.17;;;12.30;76.80;;;;;;5032824;28;20129;-70
2021/03/15 12:02:46;;;;;;;14.90;2.50;;;12.00;74.50;;;;;;5033250;28;20511;-72
2021/03/15 12:05:31;;;;;;;16.02;2.67;;;11.40;74.10;;;;;;5032756;28;20040;-73
2021/03/15 12:07:58;;;;;;;15.77;2.50;;;10.60;73.80;;;;;;5031975;28;20037;-70
2021/03/15 12:10:24;;;;;;;16.23;2.42;;;10.00;74.70;;;;;;5031522;28;20099;-71
2021/03/15 12:12:50;;;;;;;9.10;1.60;;;9.60;75.70;;;;;;5039342;28;20033;-70
2021/03/15 12:15:16;;;;;;;8.50;1.73;;;9.30;76.60;;;;;;5039285;28;20034;-71
2021/03/15 12:17:43;;;;;;;10.33;1.70;;;9.00;76.90;;;;;;5051196;28;20029;-71
2021/03/15 12:20:11;;;;;;;8.17;1.30;;;8.70;77.80;;;;;;5034882;28;20548;-69
2021/03/15 12:22:49;;;;;;;6.63;1.40;;;8.60;78.50;;;;;;5050949;28;20033;-72
2021/03/15 12:25:17;;;;;;;8.33;1.53;;;8.60;78.50;;;;;;5051606;28;20382;-72
2021/03/15 12:27:55;;;;;;;9.30;1.00;;;8.50;78.30;;;;;;5050980;28;20512;-67
2021/03/15 12:30:22;;;;;;;6.20;1.00;;;8.40;78.70;;;;;;5051024;28;20032;-63
2021/03/15 12:32:49;;;;;;;7.10;1.20;;;8.30;78.70;;;;;;5017638;28;20076;-63
2021/03/15 12:35:17;;;;;;;4.03;1.07;;;8.30;79.30;;;;;;5051321;28;20451;-66
2021/03/15 12:37:44;;;;;;;6.63;0.90;;;8.40;79.50;;;;;;5045528;28;20048;-66
2021/03/15 12:40:10;;;;;;;7.67;1.10;;;8.40;79.60;;;;;;5043229;28;20037;-68
2021/03/15 12:42:38;;;;;;;4.33;0.80;;;8.50;79.30;;;;;;5034925;28;20401;-67
2021/03/15 12:45:12;;;;;;;3.97;0.90;;;8.60;79.10;;;;;;5050703;28;20037;-67
2021/03/15 12:47:46;;;;;;;6.53;1.40;;;8.60;78.60;;;;;;5051213;28;20041;-65
2021/03/15 12:50:12;;;;;;;3.97;0.90;;;8.60;78.60;;;;;;5034495;28;20056;-63
2021/03/15 12:52:38;;;;;;;3.43;0.93;;;8.60;78.50;;;;;;5038499;28;20477;-66
2021/03/15 12:55:24;;;;;;;3.83;0.90;;;8.70;79.00;;;;;;5037278;28;20042;-66
2021/03/15 12:57:53;;;;;;;5.97;1.10;;;8.90;79.20;;;;;;5032178;28;20040;-66
2021/03/15 13:00:19;;;;;;;4.83;1.00;;;9.00;79.00;;;;;;5048966;28;20044;-67
2021/03/15 13:03:04;;;;;;;4.27;0.90;;;9.10;78.30;;;;;;5035747;28;20040;-72
2021/03/15 13:05:31;;;;;;;3.37;0.90;;;9.10;78.00;;;;;;5037466;28;20256;-67
2021/03/15 13:08:35;;;;;;;4.57;1.00;;;9.10;77.60;;;;;;4983715;28;20039;-70
2021/03/15 13:11:22;;;;;;;4.60;1.03;;;9.00;77.00;;;;;;4986552;28;20407;-71